Pomona, California
Current Conditions -  °F | °C
As of 12:53 PM on Saturday 22 Nov 2014 (Local Time) from KONT Reporting Station
Scattered Clouds Scattered Clouds  
Wind Chill: 21°   Ceiling: Unl
Heat Index: 21°   Visibility: 10mi
Dew Point:   Wind: 9mph
Humidity: 36%   Direction: 260°W
Pressure: 30.05"   Gusts: NA
Location:  34.05°N, 117.75°W
Report Text: KONT 222053Z 26008KT 10SM FEW120 SCT200 21/06 A3005 RMK AO2 SLP168 T02110056 58024
Loading
Personal Weather Stations






























Interactive Weather Map New forecast layout! Learn more

10-Day Weather Forecast

Advertisements
Track Severe Weather on mobile